createdAt,value
2022-12-01T00:00:06.769Z,1.91
2022-12-01T00:05:08.526Z,1.96
2022-12-01T00:10:26.636Z,1.84
2022-12-01T00:15:30.736Z,1.81
2022-12-01T00:20:35.569Z,1.74
2022-12-01T00:25:37.039Z,1.78
2022-12-01T00:30:38.449Z,1.79
2022-12-01T00:35:39.857Z,1.79
2022-12-01T00:40:41.283Z,1.76
2022-12-01T00:45:43.205Z,2.03
2022-12-01T00:50:45.187Z,1.73
2022-12-01T00:55:46.755Z,1.66
2022-12-01T01:00:48.635Z,1.78
2022-12-01T01:05:50.122Z,1.79
2022-12-01T01:10:51.635Z,1.92
2022-12-01T01:16:22.780Z,1.75
2022-12-01T01:21:26.033Z,1.91
2022-12-01T01:26:32.694Z,1.74
2022-12-01T01:31:35.097Z,1.78
2022-12-01T01:36:36.516Z,1.74
2022-12-01T01:41:38.439Z,1.58
2022-12-01T01:46:39.857Z,1.57
2022-12-01T01:51:46.728Z,1.59
2022-12-01T01:56:51.055Z,1.72
2022-12-01T02:02:02.170Z,1.69
2022-12-01T02:07:05.378Z,1.84
2022-12-01T02:12:15.796Z,1.84
2022-12-01T02:17:29.195Z,1.75
2022-12-01T02:23:04.265Z,1.82
2022-12-01T02:28:30.194Z,1.91
2022-12-01T02:33:38.292Z,1.86
2022-12-01T02:38:51.546Z,2.02
2022-12-01T02:44:12.788Z,2.02
2022-12-01T02:49:19.927Z,1.94
2022-12-01T02:54:23.300Z,1.82
2022-12-01T02:59:24.821Z,1.93
2022-12-01T03:04:51.624Z,1.99
2022-12-01T03:10:17.290Z,1.92
2022-12-01T03:15:37.403Z,1.94
2022-12-01T03:20:59.091Z,2.04
2022-12-01T03:26:03.824Z,1.96
2022-12-01T03:31:10.510Z,1.93
2022-12-01T03:36:22.713Z,1.96
2022-12-01T03:41:30.721Z,1.80
2022-12-01T03:46:44.742Z,1.77
2022-12-01T03:52:00.960Z,1.77
2022-12-01T03:57:08.316Z,1.88
2022-12-01T04:02:09.879Z,1.76
2022-12-01T04:07:13.806Z,1.86
2022-12-01T04:12:30.199Z,1.91
2022-12-01T04:17:31.753Z,1.95
2022-12-01T04:22:33.814Z,2.04
2022-12-01T04:27:36.029Z,2.01
2022-12-01T04:32:39.833Z,1.98
2022-12-01T04:37:41.249Z,1.91
2022-12-01T04:42:42.723Z,1.93
2022-12-01T04:47:44.204Z,1.93
2022-12-01T04:52:46.602Z,2.00
2022-12-01T04:57:48.223Z,2.05
2022-12-01T05:02:49.641Z,2.16
2022-12-01T05:07:51.230Z,2.25
2022-12-01T05:12:52.860Z,2.06
2022-12-01T05:17:54.295Z,2.12
2022-12-01T05:23:08.095Z,2.00
2022-12-01T05:28:10.417Z,2.08
2022-12-01T05:33:11.913Z,2.18
2022-12-01T05:38:13.414Z,2.19
2022-12-01T05:43:14.846Z,2.19
2022-12-01T05:48:17.826Z,2.05
2022-12-01T05:53:20.045Z,2.13
2022-12-01T05:58:22.439Z,2.15
2022-12-01T06:03:23.941Z,2.17
2022-12-01T06:08:25.617Z,2.26
2022-12-01T06:13:27.120Z,2.25
2022-12-01T06:18:31.754Z,2.23
2022-12-01T06:23:33.583Z,2.33
2022-12-01T06:28:35.246Z,2.35
2022-12-01T06:33:36.667Z,2.41
2022-12-01T06:38:38.141Z,2.49
2022-12-01T06:43:39.565Z,2.48
2022-12-01T06:48:41.068Z,2.61
2022-12-01T06:53:42.487Z,2.59
2022-12-01T06:58:43.911Z,2.57
2022-12-01T07:03:52.067Z,2.63
2022-12-01T07:08:53.491Z,2.49
2022-12-01T07:13:56.714Z,2.53
2022-12-01T07:18:59.992Z,2.49
2022-12-01T07:24:01.478Z,2.46
2022-12-01T07:29:02.901Z,2.50
2022-12-01T07:34:05.117Z,2.54
2022-12-01T07:39:08.172Z,2.58
2022-12-01T07:44:10.714Z,2.80
2022-12-01T07:49:14.855Z,2.76
2022-12-01T07:54:17.622Z,2.88
2022-12-01T07:59:19.137Z,2.89
2022-12-01T08:04:20.562Z,2.96
2022-12-01T08:09:22.032Z,3.07
2022-12-01T08:14:23.507Z,3.11
2022-12-01T08:19:25.884Z,3.20
2022-12-01T08:24:27.553Z,3.26
2022-12-01T08:29:28.965Z,3.25
2022-12-01T08:34:30.401Z,3.30
2022-12-01T08:39:31.887Z,3.27
2022-12-01T08:44:33.406Z,3.32
2022-12-01T08:49:35.116Z,3.26
2022-12-01T08:54:36.540Z,3.20
2022-12-01T08:59:38.014Z,3.20
2022-12-01T09:04:39.467Z,3.26
2022-12-01T09:09:40.926Z,3.27
2022-12-01T09:14:49.522Z,3.29
2022-12-01T09:19:51.403Z,3.38
2022-12-01T09:24:53.103Z,3.41
2022-12-01T09:29:54.525Z,3.23
2022-12-01T09:34:55.931Z,3.24
2022-12-01T09:39:57.339Z,3.29
2022-12-01T09:45:02.647Z,3.42
2022-12-01T09:50:11.780Z,3.43
2022-12-01T09:55:16.216Z,3.33
2022-12-01T10:00:21.648Z,3.44
2022-12-01T10:05:26.671Z,3.40
2022-12-01T10:10:36.444Z,3.37
2022-12-01T10:15:47.210Z,3.39
2022-12-01T10:21:00.387Z,3.48
2022-12-01T10:26:14.108Z,3.66
2022-12-01T10:31:20.912Z,3.51
2022-12-01T10:36:23.304Z,3.57
2022-12-01T10:41:27.946Z,3.54
2022-12-01T10:46:47.451Z,3.65
2022-12-01T10:51:51.741Z,3.89
2022-12-01T10:56:56.809Z,3.71
2022-12-01T11:02:00.470Z,3.68
2022-12-01T11:07:03.330Z,3.59
2022-12-01T11:12:05.070Z,3.62
2022-12-01T11:17:31.346Z,3.84
2022-12-01T11:22:33.278Z,3.93
2022-12-01T11:27:49.420Z,3.86
2022-12-01T11:32:55.163Z,3.79
2022-12-01T11:38:28.388Z,3.89
2022-12-01T11:43:21.316Z,3.81
2022-12-01T11:48:26.791Z,3.82
2022-12-01T11:53:34.624Z,3.78
2022-12-01T11:58:36.255Z,3.86
2022-12-01T12:03:51.095Z,3.76
2022-12-01T12:09:04.755Z,3.86
2022-12-01T12:14:29.906Z,3.79
2022-12-01T12:25:44.229Z,3.80
2022-12-01T12:31:26.759Z,3.71
2022-12-01T12:36:50.063Z,3.63
2022-12-01T12:41:56.285Z,3.76
2022-12-01T12:47:00.569Z,3.78
2022-12-01T12:52:08.861Z,3.78
2022-12-01T12:57:45.716Z,3.70
2022-12-01T13:03:17.127Z,3.55
2022-12-01T13:08:28.548Z,3.75
2022-12-01T13:13:48.278Z,3.63
2022-12-01T13:18:55.091Z,3.63
2022-12-01T13:23:57.044Z,3.78
2022-12-01T13:28:58.787Z,3.63
2022-12-01T13:34:03.439Z,3.66
2022-12-01T13:39:17.172Z,3.67
2022-12-01T13:44:25.678Z,3.84
2022-12-01T13:49:53.771Z,3.58
2022-12-01T13:55:12.335Z,3.71
2022-12-01T14:00:27.831Z,3.73
2022-12-01T14:05:54.990Z,3.73
2022-12-01T14:11:05.338Z,3.66
2022-12-01T14:16:08.187Z,3.64
2022-12-01T14:21:12.409Z,3.65
2022-12-01T14:26:16.114Z,3.67
2022-12-01T14:31:17.641Z,3.68
2022-12-01T14:36:37.585Z,3.51
2022-12-01T14:41:52.832Z,3.61
2022-12-01T14:47:32.510Z,3.62
2022-12-01T14:52:38.589Z,3.68
2022-12-01T14:57:45.690Z,3.69
2022-12-01T15:02:52.835Z,3.69
2022-12-01T15:08:18.626Z,3.74
2022-12-01T15:13:30.807Z,3.77
2022-12-01T15:18:36.897Z,3.80
2022-12-01T15:24:03.110Z,3.79
2022-12-01T15:29:45.520Z,3.92
2022-12-01T15:34:50.766Z,3.80
2022-12-01T15:40:43.115Z,3.73
2022-12-01T15:45:22.508Z,3.82
2022-12-01T15:50:33.575Z,3.77
2022-12-01T15:55:37.577Z,3.74
2022-12-01T16:00:39.127Z,3.82
2022-12-01T16:05:44.158Z,3.85
2022-12-01T16:10:46.048Z,3.87
2022-12-01T16:15:47.454Z,3.86
2022-12-01T16:20:50.108Z,3.89
2022-12-01T16:25:51.849Z,3.83
2022-12-01T16:30:53.948Z,4.03
2022-12-01T16:35:55.629Z,3.77
2022-12-01T16:40:59.907Z,3.88
2022-12-01T16:46:03.602Z,3.81
2022-12-01T16:51:07.750Z,3.78
2022-12-01T16:56:12.630Z,3.73
2022-12-01T17:01:14.234Z,3.79
2022-12-01T17:06:18.138Z,3.80
2022-12-01T17:11:19.700Z,3.68
2022-12-01T17:16:21.258Z,3.65
2022-12-01T17:21:22.728Z,3.70
2022-12-01T17:26:24.250Z,3.66
2022-12-01T17:31:25.749Z,3.63
2022-12-01T17:36:27.263Z,3.69
2022-12-01T17:41:32.532Z,3.71
2022-12-01T17:46:34.166Z,3.73
2022-12-01T17:51:36.689Z,3.60
2022-12-01T17:56:38.115Z,3.75
2022-12-01T18:01:41.168Z,3.72
2022-12-01T18:06:42.986Z,3.62
2022-12-01T18:11:44.501Z,3.59
2022-12-01T18:16:45.927Z,3.83
2022-12-01T18:21:47.701Z,3.65
2022-12-01T18:26:49.173Z,3.71
2022-12-01T18:31:52.575Z,3.78
2022-12-01T18:36:54.028Z,3.58
2022-12-01T18:41:55.459Z,3.58
2022-12-01T18:46:57.777Z,3.66
2022-12-01T18:52:00.317Z,3.62
2022-12-01T18:57:01.733Z,3.61
2022-12-01T19:02:03.269Z,3.58
2022-12-01T19:07:04.735Z,3.46
2022-12-01T19:12:06.567Z,3.41
2022-12-01T19:17:08.053Z,3.41
2022-12-01T19:22:09.483Z,3.51
2022-12-01T19:27:10.924Z,3.51
2022-12-01T19:32:12.364Z,3.42
2022-12-01T19:37:13.894Z,3.62
2022-12-01T19:42:15.340Z,3.47
2022-12-01T19:47:21.948Z,3.47
2022-12-01T19:52:23.939Z,3.40
2022-12-01T19:57:25.402Z,3.33
2022-12-01T20:02:29.375Z,3.53
2022-12-01T20:07:31.116Z,3.37
2022-12-01T20:12:34.493Z,3.42
2022-12-01T20:17:37.868Z,3.60
2022-12-01T20:22:39.589Z,3.37
2022-12-01T20:27:42.312Z,3.41
2022-12-01T20:32:43.767Z,3.33
2022-12-01T20:37:45.261Z,3.52
2022-12-01T20:42:46.692Z,3.22
2022-12-01T20:47:48.123Z,3.27
2022-12-01T20:52:49.618Z,3.13
2022-12-01T20:57:51.399Z,3.21
2022-12-01T21:02:52.957Z,3.39
2022-12-01T21:07:54.732Z,3.09
2022-12-01T21:13:18.824Z,2.97
2022-12-01T21:18:22.629Z,2.95
2022-12-01T21:23:27.002Z,3.15
2022-12-01T21:28:29.670Z,3.23
2022-12-01T21:33:33.111Z,3.31
2022-12-01T21:38:34.586Z,3.16
2022-12-01T21:43:38.411Z,3.25
2022-12-01T21:48:40.574Z,3.39
2022-12-01T21:53:42.049Z,3.23
2022-12-01T21:58:43.917Z,3.29
2022-12-01T22:03:47.769Z,3.22
2022-12-01T22:08:54.860Z,3.18
2022-12-01T22:13:59.288Z,3.29
2022-12-01T22:19:15.800Z,3.27
2022-12-01T22:24:20.514Z,3.21
2022-12-01T22:29:35.926Z,3.13
2022-12-01T22:34:38.112Z,3.07
2022-12-01T22:39:40.135Z,3.12
2022-12-01T22:44:44.919Z,3.20
2022-12-01T22:49:46.396Z,3.19
2022-12-01T22:54:50.135Z,3.08
2022-12-01T22:59:52.154Z,3.08
2022-12-01T23:04:59.825Z,3.14
2022-12-01T23:10:12.047Z,3.08
2022-12-01T23:15:24.270Z,3.04
2022-12-01T23:20:32.279Z,3.06
2022-12-01T23:25:35.158Z,2.93
2022-12-01T23:30:39.244Z,2.93
2022-12-01T23:35:57.872Z,2.94
2022-12-01T23:41:01.705Z,2.81
2022-12-01T23:46:05.962Z,2.74
2022-12-01T23:51:19.749Z,2.88
2022-12-01T23:56:24.314Z,3.04
